Time;durP1;ratioP1;P1;durP2;ratioP2;P2;SDS_P1;SDS_P2;PMS_P1;PMS_P2;Temp;Humidity;BMP_temperature;BMP_pressure;BME280_temperature;BME280_humidity;BME280_pressure;Samples;Min_cycle;Max_cycle;Signal;HPM_P1;HPM_P2
2023/06/16 00:01:35;;;;;;;5.57;3.40;;;16.50;93.20;;;17.24;87.81;98219.19;5023948;28;20474;-81
2023/06/16 00:04:06;;;;;;;5.63;3.87;;;16.40;93.10;;;17.22;87.59;98223.88;5021914;28;20482;-82
2023/06/16 00:06:36;;;;;;;4.80;3.40;;;16.40;93.00;;;17.19;88.00;98221.69;5025192;28;20493;-81
2023/06/16 00:09:04;;;;;;;5.50;3.40;;;16.40;92.90;;;17.12;88.22;98221.78;5023832;28;21047;-81
2023/06/16 00:11:34;;;;;;;9.10;4.20;;;16.40;92.90;;;17.03;89.12;98231.88;5024288;28;20469;-81
2023/06/16 00:14:03;;;;;;;8.73;3.90;;;16.40;92.90;;;16.98;88.82;98234.38;5024609;28;20525;-81
2023/06/16 00:16:32;;;;;;;5.50;3.70;;;16.30;93.00;;;16.94;89.20;98229.75;5023830;28;20501;-82
2023/06/16 00:19:01;;;;;;;4.60;3.50;;;16.30;93.00;;;16.85;89.16;98239.03;5021960;28;20532;-81
2023/06/16 00:21:37;;;;;;;6.90;3.47;;;16.20;92.80;;;16.74;89.54;98226.56;5021632;28;20467;-81
2023/06/16 00:24:07;;;;;;;4.90;3.80;;;16.10;93.00;;;16.67;90.94;98231.91;5025308;28;20548;-81
2023/06/16 00:26:37;;;;;;;5.37;4.07;;;16.10;93.20;;;16.64;91.27;98240.28;5022223;28;20584;-81
2023/06/16 00:29:07;;;;;;;5.10;3.77;;;16.00;93.40;;;16.69;91.91;98237.00;5024123;28;20489;-81
2023/06/16 00:31:36;;;;;;;6.73;4.00;;;15.90;93.80;;;16.69;91.45;98231.72;5025150;28;20475;-81
2023/06/16 00:34:05;;;;;;;3.63;3.07;;;15.90;93.50;;;16.68;91.10;98238.81;5022496;28;20557;-81
2023/06/16 00:36:35;;;;;;;8.13;3.47;;;15.90;93.40;;;16.66;90.78;98235.56;5023305;28;20469;-81
2023/06/16 00:39:04;;;;;;;5.33;4.27;;;15.90;93.30;;;16.60;90.37;98228.53;5024838;28;20992;-81
2023/06/16 00:41:32;;;;;;;8.73;3.40;;;15.90;93.20;;;16.56;90.68;98236.09;5022148;28;20509;-81
2023/06/16 00:44:03;;;;;;;6.70;3.80;;;15.90;93.30;;;16.49;91.35;98237.97;5025046;28;20992;-80
2023/06/16 00:46:37;;;;;;;5.40;3.93;;;15.80;93.30;;;16.45;91.60;98233.38;5022791;28;21091;-81
2023/06/16 00:49:06;;;;;;;5.93;3.70;;;15.70;93.50;;;16.42;91.43;98225.88;5022357;28;20553;-81
2023/06/16 00:51:36;;;;;;;5.27;3.50;;;15.70;93.50;;;16.41;91.86;98221.63;5022867;28;20453;-81
2023/06/16 00:54:06;;;;;;;6.57;3.70;;;15.60;93.70;;;16.40;91.81;98215.53;5026504;28;20477;-81
2023/06/16 00:56:37;;;;;;;6.47;4.23;;;15.60;93.50;;;16.37;92.44;98221.25;5024125;28;20862;-81
2023/06/16 00:59:08;;;;;;;9.20;3.40;;;15.60;93.60;;;16.30;92.69;98223.16;5024413;28;20895;-81
2023/06/16 01:01:38;;;;;;;4.53;3.50;;;15.60;93.60;;;16.26;93.39;98221.16;5023454;28;20473;-81
2023/06/16 01:04:07;;;;;;;5.70;3.90;;;15.60;93.70;;;16.18;93.73;98218.81;5025259;28;20474;-81
2023/06/16 01:06:57;;;;;;;4.83;3.60;;;15.50;93.70;;;16.09;94.02;98220.94;5022171;28;20455;-81
2023/06/16 01:09:40;;;;;;;6.43;3.47;;;15.50;93.60;;;15.98;94.20;98219.81;5026157;28;20508;-81
2023/06/16 01:12:21;;;;;;;8.00;3.87;;;15.40;93.60;;;15.95;94.38;98219.44;5022630;28;20532;-81
2023/06/16 01:15:02;;;;;;;4.40;3.23;;;15.40;93.70;;;15.90;95.00;98221.91;5022765;28;20458;-82
2023/06/16 01:17:38;;;;;;;7.10;4.60;;;15.30;93.80;;;15.88;95.17;98224.78;5024018;28;20569;-81
2023/06/16 01:20:15;;;;;;;6.00;4.00;;;15.20;93.90;;;15.87;94.99;98222.34;5022488;28;20458;-81
2023/06/16 01:22:58;;;;;;;5.67;4.00;;;15.20;93.90;;;15.81;95.54;98225.84;5023804;28;20875;-81
2023/06/16 01:25:33;;;;;;;6.50;3.50;;;15.20;94.00;;;15.83;96.15;98226.44;5022702;28;21418;-81
2023/06/16 01:28:07;;;;;;;8.07;3.60;;;15.10;94.40;;;15.83;95.50;98226.44;5022900;28;20536;-81
2023/06/16 01:30:42;;;;;;;5.37;3.20;;;15.10;94.20;;;15.84;95.32;98228.06;5021543;28;20585;-81
2023/06/16 01:33:16;;;;;;;9.80;4.00;;;15.10;94.40;;;15.80;95.72;98222.41;5023546;28;20499;-81
2023/06/16 01:35:47;;;;;;;7.63;3.70;;;15.10;94.10;;;15.76;95.88;98228.34;5023424;28;20466;-81
2023/06/16 01:38:16;;;;;;;3.70;2.87;;;15.00;94.20;;;15.73;95.97;98223.47;5022279;28;20481;-81
2023/06/16 01:40:49;;;;;;;5.03;3.60;;;15.00;94.40;;;15.66;96.14;98225.34;5023757;28;20472;-81
2023/06/16 01:43:20;;;;;;;6.60;3.77;;;15.00;94.10;;;15.54;97.11;98220.81;5025231;28;20472;-81
2023/06/16 01:45:52;;;;;;;5.47;3.80;;;15.00;94.20;;;15.50;97.47;98219.59;5022788;28;20462;-81
2023/06/16 01:48:22;;;;;;;6.53;3.67;;;14.90;94.20;;;15.51;97.50;98223.88;5023386;28;20492;-81
2023/06/16 01:50:52;;;;;;;10.00;3.67;;;14.80;94.40;;;15.50;97.27;98216.97;5021393;28;20465;-81
2023/06/16 01:53:21;;;;;;;6.10;3.20;;;14.80;94.40;;;15.49;97.40;98230.34;5023976;28;20477;-81
2023/06/16 01:55:52;;;;;;;5.60;3.47;;;14.80;94.40;;;15.42;97.61;98219.81;5026574;28;21055;-81
2023/06/16 01:58:26;;;;;;;5.07;3.40;;;14.80;94.40;;;15.37;98.03;98224.94;5025250;28;20468;-81
2023/06/16 02:01:00;;;;;;;5.83;3.43;;;14.80;94.40;;;15.31;98.70;98223.13;5022359;28;20478;-81
2023/06/16 02:03:36;;;;;;;6.70;3.90;;;14.70;94.40;;;15.30;99.00;98221.53;5022503;28;20539;-81
2023/06/16 02:06:16;;;;;;;8.03;4.17;;;14.60;94.70;;;15.34;98.62;98227.97;5024900;28;20473;-81
2023/06/16 02:08:49;;;;;;;6.63;3.30;;;14.60;94.80;;;15.33;97.95;98223.75;5024965;28;20509;-81
2023/06/16 02:11:21;;;;;;;4.30;2.67;;;14.60;94.70;;;15.30;98.38;98220.72;5024278;28;20509;-81
2023/06/16 02:13:51;;;;;;;6.53;3.57;;;14.50;94.60;;;15.28;98.47;98223.56;5024600;28;20466;-81
2023/06/16 02:16:20;;;;;;;6.63;3.93;;;14.50;94.70;;;15.21;98.93;98220.16;5024024;28;20462;-81
2023/06/16 02:18:53;;;;;;;7.83;3.57;;;14.50;94.60;;;15.15;99.63;98215.75;5023058;28;20839;-81
2023/06/16 02:21:22;;;;;;;6.40;3.77;;;14.50;94.60;;;15.12;100.00;98216.19;5022910;28;20675;-81
2023/06/16 02:23:51;;;;;;;5.53;3.37;;;14.50;94.90;;;15.09;99.94;98217.41;5026655;28;20464;-81
2023/06/16 02:26:24;;;;;;;5.90;3.37;;;14.50;94.80;;;15.09;100.00;98222.69;5027523;28;20501;-81
2023/06/16 02:28:53;;;;;;;5.30;3.40;;;14.40;95.00;;;15.06;100.00;98225.72;5025777;28;20498;-81
2023/06/16 02:31:22;;;;;;;6.27;3.80;;;14.40;95.00;;;15.06;100.00;98224.94;5029747;28;20520;-81
2023/06/16 02:33:52;;;;;;;6.47;3.97;;;14.30;95.00;;;15.02;100.00;98216.63;5029488;28;20871;-81
2023/06/16 02:36:21;;;;;;;5.87;4.23;;;14.30;95.00;;;14.99;100.00;98227.56;5027141;28;20457;-81
2023/06/16 02:38:49;;;;;;;4.70;3.50;;;14.30;95.00;;;14.98;100.00;98235.69;5029354;28;20464;-81
2023/06/16 02:41:20;;;;;;;7.10;3.30;;;14.30;95.00;;;14.96;100.00;98229.84;5027050;28;20467;-82
2023/06/16 02:43:49;;;;;;;5.43;3.37;;;14.30;95.10;;;14.86;100.00;98224.19;5030043;28;20465;-81
2023/06/16 02:46:18;;;;;;;4.77;3.67;;;14.20;95.00;;;14.79;100.00;98223.41;5026924;28;20473;-81
2023/06/16 02:48:47;;;;;;;9.30;3.93;;;14.20;95.10;;;14.80;100.00;98222.41;5025051;28;21003;-81
2023/06/16 02:51:16;;;;;;;6.50;3.60;;;14.10;95.20;;;14.80;100.00;98225.03;5026219;28;20865;-81
2023/06/16 02:53:45;;;;;;;14.00;4.13;;;14.10;95.20;;;14.73;100.00;98219.81;5027759;28;20906;-81
2023/06/16 02:56:14;;;;;;;7.17;3.40;;;14.10;95.30;;;14.72;100.00;98217.38;5028466;28;21462;-81
2023/06/16 02:58:44;;;;;;;7.50;3.90;;;14.10;95.40;;;14.70;100.00;98219.41;5028657;28;20468;-81
2023/06/16 03:01:14;;;;;;;6.03;3.20;;;14.00;95.20;;;14.69;100.00;98217.78;5027411;28;21219;-82
2023/06/16 03:03:47;;;;;;;4.20;3.47;;;14.00;95.30;;;14.65;100.00;98219.25;5025410;28;20560;-81
2023/06/16 03:06:16;;;;;;;4.37;3.20;;;14.00;95.30;;;14.57;100.00;98217.66;5023256;28;20967;-76
2023/06/16 03:08:45;;;;;;;5.90;3.50;;;14.00;95.30;;;14.54;100.00;98221.47;5022847;28;20531;-82
2023/06/16 03:11:13;;;;;;;6.20;4.23;;;13.90;95.40;;;14.52;100.00;98220.09;5027434;28;20462;-80
2023/06/16 03:13:45;;;;;;;5.47;3.50;;;13.90;95.40;;;14.50;100.00;98224.75;5025941;28;20515;-82
2023/06/16 03:16:16;;;;;;;7.80;3.30;;;13.80;95.50;;;14.50;100.00;98219.50;5027352;28;20446;-81
2023/06/16 03:18:45;;;;;;;19.03;9.37;;;13.80;95.60;;;14.44;100.00;98218.47;5025055;28;20465;-79
2023/06/16 03:21:16;;;;;;;4.30;3.20;;;13.80;95.60;;;14.44;100.00;98220.31;5026854;28;20462;-82
2023/06/16 03:23:45;;;;;;;8.40;3.80;;;13.80;95.60;;;14.44;100.00;98217.66;5023432;28;20465;-81
2023/06/16 03:26:14;;;;;;;6.13;3.33;;;13.70;95.70;;;14.41;100.00;98216.28;5022308;28;20473;-82
2023/06/16 03:28:44;;;;;;;10.77;4.40;;;13.70;95.70;;;14.39;100.00;98225.38;5024275;28;20491;-83
2023/06/16 03:31:14;;;;;;;6.23;4.07;;;13.70;95.60;;;14.35;100.00;98222.38;5027205;28;20462;-83
2023/06/16 03:33:43;;;;;;;4.77;3.60;;;13.70;95.70;;;14.32;100.00;98233.28;5024545;28;20543;-83
2023/06/16 03:36:12;;;;;;;6.40;3.60;;;13.70;95.70;;;14.30;100.00;98226.59;5023199;28;20470;-82
2023/06/16 03:38:41;;;;;;;7.63;3.63;;;13.60;95.80;;;14.26;100.00;98231.47;5025264;28;20815;-82
2023/06/16 03:41:09;;;;;;;5.23;3.70;;;13.60;95.80;;;14.26;100.00;98233.28;5025675;28;20473;-83
2023/06/16 03:43:38;;;;;;;5.10;3.70;;;13.60;95.90;;;14.23;100.00;98238.97;5024086;28;20486;-83
2023/06/16 03:46:08;;;;;;;6.47;3.23;;;13.60;96.00;;;14.21;100.00;98239.16;5026720;28;21127;-82
2023/06/16 03:48:37;;;;;;;8.70;4.10;;;13.50;96.20;;;14.19;100.00;98246.47;5025549;28;20509;-79
2023/06/16 03:51:06;;;;;;;4.47;3.30;;;13.50;95.90;;;14.19;100.00;98235.94;5025536;28;20492;-82
2023/06/16 03:53:34;;;;;;;6.50;3.57;;;13.50;96.00;;;14.17;100.00;98237.94;5024898;28;20473;-82
2023/06/16 03:56:03;;;;;;;8.00;4.00;;;13.50;96.10;;;14.19;100.00;98238.56;5024283;28;20458;-82
2023/06/16 03:58:32;;;;;;;5.93;3.30;;;13.50;96.20;;;14.21;100.00;98235.72;5023214;28;20891;-82
2023/06/16 04:01:02;;;;;;;4.77;3.23;;;13.50;96.20;;;14.23;100.00;98242.38;5024961;28;20453;-82
2023/06/16 04:03:32;;;;;;;8.23;3.87;;;13.50;96.40;;;14.25;100.00;98240.38;5022634;28;20577;-83
2023/06/16 04:06:04;;;;;;;10.53;4.60;;;13.50;96.40;;;14.25;100.00;98243.00;5004843;28;20458;-81
2023/06/16 04:08:32;;;;;;;6.27;3.90;;;13.50;96.30;;;14.26;100.00;98244.63;5022412;28;20466;-83
2023/06/16 04:11:02;;;;;;;9.93;4.20;;;13.50;96.30;;;14.27;100.00;98235.69;5026876;28;20466;-82
2023/06/16 04:13:31;;;;;;;5.53;3.70;;;13.50;96.40;;;14.29;100.00;98240.75;5023861;28;20917;-82
2023/06/16 04:16:00;;;;;;;15.43;4.13;;;13.50;96.30;;;14.25;100.00;98237.75;5027511;28;20468;-82
2023/06/16 04:18:31;;;;;;;4.70;3.17;;;13.60;96.30;;;14.21;100.00;98235.72;5028203;28;20466;-81
2023/06/16 04:21:00;;;;;;;8.60;4.10;;;13.60;96.30;;;14.19;100.00;98246.47;5025960;28;20466;-83
2023/06/16 04:23:29;;;;;;;5.17;4.10;;;13.60;96.40;;;14.20;100.00;98239.34;5027390;28;20497;-84
2023/06/16 04:25:58;;;;;;;6.53;3.27;;;13.50;96.50;;;14.19;100.00;98243.81;5026814;28;20466;-83
2023/06/16 04:28:27;;;;;;;7.33;4.47;;;13.50;96.60;;;14.20;100.00;98245.41;5026300;28;20505;-83
2023/06/16 04:30:56;;;;;;;7.70;4.43;;;13.50;96.60;;;14.21;100.00;98244.41;5026930;28;20501;-83
2023/06/16 04:33:26;;;;;;;7.10;4.10;;;13.50;96.60;;;14.24;100.00;98240.56;5025071;28;20478;-83
2023/06/16 04:35:59;;;;;;;11.40;3.80;;;13.50;96.60;;;14.25;100.00;98236.94;5027779;28;20558;-83
2023/06/16 04:38:31;;;;;;;6.00;3.60;;;13.50;96.50;;;14.28;100.00;98247.03;5026395;28;20485;-82
2023/06/16 04:41:01;;;;;;;4.70;3.77;;;13.50;96.60;;;14.29;100.00;98238.94;5026481;28;20477;-82
2023/06/16 04:43:31;;;;;;;6.23;3.77;;;13.50;96.40;;;14.31;100.00;98236.91;5026785;28;20516;-82
2023/06/16 04:46:00;;;;;;;5.33;3.60;;;13.50;96.50;;;14.31;100.00;98231.66;5026365;28;21063;-82
2023/06/16 04:48:30;;;;;;;6.57;4.10;;;13.60;96.40;;;14.36;100.00;98244.22;5022036;28;20585;-82
2023/06/16 04:51:00;;;;;;;8.63;5.00;;;13.60;96.60;;;14.40;100.00;98234.91;5023692;28;20960;-81
2023/06/16 04:53:31;;;;;;;3.40;3.00;;;13.60;96.90;;;14.47;100.00;98231.22;5021634;28;20458;-82
2023/06/16 04:56:00;;;;;;;7.17;3.40;;;13.60;97.10;;;14.52;100.00;98233.25;4998016;28;20470;-82
2023/06/16 04:58:30;;;;;;;8.83;4.03;;;13.60;96.80;;;14.56;100.00;98235.25;5022065;28;20462;-81
2023/06/16 05:01:00;;;;;;;5.67;3.50;;;13.70;96.80;;;14.59;100.00;98226.94;5022600;28;20819;-82
2023/06/16 05:03:31;;;;;;;8.20;4.57;;;13.70;96.70;;;14.65;100.00;98229.78;5021486;28;20484;-82
2023/06/16 05:06:05;;;;;;;7.07;3.60;;;13.70;96.90;;;14.70;100.00;98229.94;5023191;28;20457;-81
2023/06/16 05:08:33;;;;;;;7.53;3.60;;;13.80;97.00;;;14.74;100.00;98231.97;5021376;28;20504;-82
2023/06/16 05:11:02;;;;;;;10.97;3.73;;;13.80;96.70;;;14.77;100.00;98236.00;5020013;28;20524;-82
2023/06/16 05:13:31;;;;;;;5.47;3.87;;;13.90;96.60;;;14.79;100.00;98232.13;5022088;28;20466;-81
2023/06/16 05:16:00;;;;;;;6.90;4.27;;;13.90;96.40;;;14.81;100.00;98239.81;5023255;28;20964;-81
2023/06/16 05:18:30;;;;;;;6.50;3.97;;;13.90;96.30;;;14.82;100.00;98239.59;5021998;28;20472;-81
2023/06/16 05:20:59;;;;;;;5.90;3.73;;;14.00;96.30;;;14.84;100.00;98236.78;5022599;28;20458;-81
2023/06/16 05:23:29;;;;;;;11.10;3.90;;;14.10;96.20;;;14.83;100.00;98240.41;5023300;28;21015;-81
2023/06/16 05:25:59;;;;;;;8.63;3.70;;;14.10;96.20;;;14.85;100.00;98238.41;5021924;28;20466;-81
2023/06/16 05:28:29;;;;;;;6.70;4.57;;;14.10;96.20;;;14.89;100.00;98235.13;5020634;28;20486;-82
2023/06/16 05:30:59;;;;;;;5.43;4.20;;;14.20;96.10;;;14.91;100.00;98233.09;4986027;28;20490;-81
2023/06/16 05:33:28;;;;;;;8.30;4.40;;;14.20;96.10;;;14.94;100.00;98232.69;5021976;28;20565;-81
2023/06/16 05:35:57;;;;;;;6.17;4.37;;;14.20;96.20;;;14.99;100.00;98232.84;5025518;28;20459;-81
2023/06/16 05:38:25;;;;;;;10.03;3.73;;;14.20;96.20;;;15.02;100.00;98227.19;5023666;28;20483;-81
2023/06/16 05:40:56;;;;;;;7.87;3.90;;;14.20;96.20;;;15.08;100.00;98234.22;5022765;28;20466;-82
2023/06/16 05:43:25;;;;;;;8.57;4.50;;;14.30;96.10;;;15.13;100.00;98232.78;5024905;28;20528;-81
2023/06/16 05:45:55;;;;;;;9.10;4.10;;;14.30;96.10;;;15.15;100.00;98226.28;5024456;28;20474;-81
2023/06/16 05:48:23;;;;;;;6.00;4.20;;;14.40;96.10;;;15.20;100.00;98236.19;5024592;28;20458;-81
2023/06/16 05:50:52;;;;;;;6.90;4.17;;;14.40;96.20;;;15.26;100.00;98230.06;5025062;28;20502;-81
2023/06/16 05:53:21;;;;;;;8.07;3.70;;;14.40;96.20;;;15.32;100.00;98239.75;5024038;28;20831;-81
2023/06/16 05:55:49;;;;;;;5.63;3.87;;;14.50;96.30;;;15.37;100.00;98234.69;5024145;28;20477;-81
2023/06/16 05:58:20;;;;;;;6.50;4.23;;;14.50;96.50;;;15.42;100.00;98234.81;5006737;28;20553;-82
2023/06/16 06:00:53;;;;;;;5.50;3.77;;;14.60;96.40;;;15.49;100.00;98240.91;5007308;28;20560;-82
2023/06/16 06:03:24;;;;;;;6.20;4.20;;;14.60;96.50;;;15.54;100.00;98239.25;5024765;28;20504;-82
2023/06/16 06:05:56;;;;;;;7.67;4.03;;;14.70;96.50;;;15.61;100.00;98239.19;5024511;28;20461;-81
2023/06/16 06:08:30;;;;;;;6.30;4.00;;;14.80;96.20;;;15.67;100.00;98242.78;5024892;28;20971;-81
2023/06/16 06:11:01;;;;;;;4.37;3.37;;;14.90;96.00;;;15.71;100.00;98247.44;5006677;28;20497;-81
2023/06/16 06:13:33;;;;;;;7.80;4.20;;;15.00;95.90;;;15.77;100.00;98241.28;5007589;28;20472;-82
2023/06/16 06:16:06;;;;;;;6.30;3.50;;;15.00;96.10;;;15.82;100.00;98245.94;5022872;28;20466;-82
2023/06/16 06:18:43;;;;;;;5.10;4.20;;;15.00;96.00;;;15.89;100.00;98246.69;5005994;28;20832;-81
2023/06/16 06:21:12;;;;;;;9.00;4.57;;;15.10;95.90;;;15.94;100.00;98249.47;5026008;28;20465;-81
2023/06/16 06:23:41;;;;;;;6.67;4.10;;;15.10;95.80;;;15.99;100.00;98253.09;5024395;28;20901;-81
2023/06/16 06:26:10;;;;;;;6.27;3.73;;;15.20;95.90;;;16.07;100.00;98259.91;5004811;28;20454;-82
2023/06/16 06:28:40;;;;;;;26.40;14.83;;;15.30;95.80;;;16.14;100.00;98257.22;5022709;28;20482;-80
2023/06/16 06:31:09;;;;;;;10.57;4.97;;;15.30;95.90;;;16.19;100.00;98258.19;5024688;28;20694;-81
2023/06/16 06:33:37;;;;;;;6.60;4.03;;;15.40;95.90;;;16.25;100.00;98259.94;5024759;28;20478;-81
2023/06/16 06:36:07;;;;;;;9.53;4.23;;;15.40;96.00;;;16.31;100.00;98255.66;5023524;28;20501;-81
2023/06/16 06:38:35;;;;;;;6.07;3.70;;;15.50;96.00;;;16.37;100.00;98260.84;5024418;28;20478;-81
2023/06/16 06:41:05;;;;;;;7.40;4.20;;;15.50;96.10;;;16.43;100.00;98265.25;5025031;28;20460;-81
2023/06/16 06:43:33;;;;;;;6.63;3.67;;;15.60;96.10;;;16.49;100.00;98263.56;5024781;28;21097;-81
2023/06/16 06:46:04;;;;;;;15.83;4.23;;;15.60;96.20;;;16.56;100.00;98270.41;5024070;28;20470;-81
2023/06/16 06:48:33;;;;;;;6.93;3.87;;;15.80;96.30;;;16.61;100.00;98267.13;5023607;28;20488;-81
2023/06/16 06:51:05;;;;;;;5.60;4.53;;;15.80;96.20;;;16.67;100.00;98255.69;5022449;28;20496;-81
2023/06/16 06:53:34;;;;;;;8.00;3.80;;;15.80;96.30;;;16.73;100.00;98267.22;5023740;28;20465;-81
2023/06/16 06:56:03;;;;;;;5.57;3.80;;;15.90;96.40;;;16.79;100.00;98263.69;5022862;28;20468;-82
2023/06/16 06:58:33;;;;;;;6.37;3.40;;;15.90;96.30;;;16.85;100.00;98268.06;5024516;28;20930;-81
2023/06/16 07:01:03;;;;;;;4.90;3.47;;;16.00;96.30;;;16.91;100.00;98262.72;5023518;28;20476;-82
2023/06/16 07:03:33;;;;;;;10.50;4.07;;;16.10;96.30;;;16.99;100.00;98264.25;5023560;28;21030;-82
2023/06/16 07:06:02;;;;;;;6.30;3.70;;;16.10;96.20;;;17.06;100.00;98267.63;5023230;28;20461;-81
2023/06/16 07:08:30;;;;;;;7.37;3.70;;;16.20;96.10;;;17.11;100.00;98263.25;5023101;28;20463;-81
2023/06/16 07:11:00;;;;;;;10.03;4.13;;;16.30;96.00;;;17.19;100.00;98263.97;5024553;28;21371;-82
2023/06/16 07:13:28;;;;;;;6.40;3.73;;;16.30;95.80;;;17.25;100.00;98257.81;5027227;28;20458;-81
2023/06/16 07:15:57;;;;;;;134.47;69.63;;;16.40;96.10;;;17.35;99.70;98252.81;5024051;28;21766;-81
2023/06/16 07:18:27;;;;;;;17.53;10.40;;;16.50;96.10;;;17.43;99.13;98261.22;5027152;28;20467;-81
2023/06/16 07:20:56;;;;;;;9.60;6.13;;;16.60;95.90;;;17.49;98.94;98259.53;5026576;28;20485;-80
2023/06/16 07:23:25;;;;;;;7.60;4.20;;;16.70;95.80;;;17.55;98.79;98259.41;5026489;28;20473;-81
2023/06/16 07:25:55;;;;;;;5.97;4.43;;;16.70;95.80;;;17.62;98.50;98255.91;5025819;28;20471;-80
2023/06/16 07:28:23;;;;;;;5.20;3.97;;;16.80;95.80;;;17.69;98.42;98260.06;5025941;28;20493;-80
2023/06/16 07:30:52;;;;;;;4.93;3.83;;;16.90;95.80;;;17.76;98.30;98257.31;5026843;28;20502;-80
2023/06/16 07:33:20;;;;;;;6.43;4.17;;;16.90;95.80;;;17.81;98.01;98260.06;5026150;28;20528;-80
2023/06/16 07:35:51;;;;;;;6.77;3.70;;;17.00;95.70;;;17.87;98.03;98257.34;5026311;28;20462;-81
2023/06/16 07:38:20;;;;;;;10.43;3.70;;;17.10;95.80;;;17.94;97.57;98258.03;5024523;28;20490;-81
2023/06/16 07:40:49;;;;;;;3.77;3.10;;;17.10;95.70;;;18.01;97.02;98253.41;5024033;28;20461;-82
2023/06/16 07:43:17;;;;;;;45.40;27.20;;;17.20;95.50;;;18.09;96.33;98257.56;5024123;28;20953;-81
2023/06/16 07:45:46;;;;;;;6.50;4.30;;;17.30;95.30;;;18.18;94.92;98253.56;5023651;28;20823;-81
2023/06/16 07:48:15;;;;;;;8.60;3.90;;;17.40;95.20;;;18.27;94.78;98252.16;5026200;28;20556;-82
2023/06/16 07:50:43;;;;;;;14.10;3.70;;;17.50;95.10;;;18.38;91.58;98250.53;5021773;28;21058;-81
2023/06/16 07:53:13;;;;;;;5.23;3.33;;;17.50;94.40;;;18.48;90.20;98251.56;5023616;28;20524;-81
2023/06/16 07:55:42;;;;;;;4.90;3.40;;;17.60;94.00;;;18.57;89.98;98250.19;5024069;28;20470;-81
2023/06/16 07:58:11;;;;;;;6.43;3.10;;;17.80;94.20;;;18.67;89.79;98256.75;5026356;28;20465;-82
2023/06/16 08:00:40;;;;;;;6.53;3.27;;;17.90;93.90;;;18.73;87.69;98245.22;5026833;28;20458;-82
2023/06/16 08:03:08;;;;;;;4.30;3.17;;;18.00;93.50;;;18.82;87.08;98241.97;5024988;28;20474;-82
2023/06/16 08:05:37;;;;;;;8.47;3.43;;;18.10;93.60;;;18.89;85.84;98239.19;5022315;28;20472;-82
2023/06/16 08:08:06;;;;;;;3.67;2.97;;;18.10;92.80;;;18.95;84.15;98238.25;5024869;28;20466;-82
2023/06/16 08:10:36;;;;;;;9.77;3.20;;;18.20;92.50;;;19.04;80.68;98234.19;5022707;28;20470;-81
2023/06/16 08:13:05;;;;;;;4.47;2.73;;;18.20;91.20;;;19.15;69.11;98232.53;5022909;28;20874;-81
2023/06/16 08:15:34;;;;;;;8.37;5.57;;;18.30;87.20;;;19.26;64.86;98236.97;5023507;28;21103;-79
2023/06/16 08:18:03;;;;;;;9.80;4.30;;;18.40;85.20;;;19.39;64.70;98226.06;5022146;28;20466;-81
2023/06/16 08:20:32;;;;;;;6.23;3.90;;;18.50;85.30;;;19.49;65.76;98224.44;5023159;28;20470;-82
2023/06/16 08:23:01;;;;;;;4.80;3.20;;;18.60;85.80;;;19.55;67.44;98226.13;5022705;28;20470;-80
2023/06/16 08:25:29;;;;;;;5.03;3.30;;;18.80;87.80;;;19.67;62.62;98227.91;5024333;28;20461;-82
2023/06/16 08:28:00;;;;;;;21.93;12.63;;;18.90;83.70;;;19.73;64.47;98219.78;5022945;28;20488;-81
2023/06/16 08:30:28;;;;;;;6.80;3.23;;;19.00;86.00;;;19.80;63.75;98223.09;5021160;28;20473;-82
2023/06/16 08:32:57;;;;;;;9.83;3.07;;;19.00;85.10;;;19.89;62.62;98224.28;5024133;28;20493;-82
2023/06/16 08:35:25;;;;;;;7.60;3.30;;;19.10;83.90;;;20.01;56.22;98224.19;5025084;28;20489;-82
2023/06/16 08:37:54;;;;;;;8.20;3.50;;;19.40;79.20;;;20.10;56.30;98220.06;5025684;28;20980;-82
2023/06/16 08:40:23;;;;;;;6.17;3.30;;;19.40;79.50;;;20.17;57.17;98226.03;5025706;28;20470;-82
2023/06/16 08:42:55;;;;;;;6.27;2.80;;;19.50;80.40;;;20.25;58.23;98225.63;5025170;28;20552;-82
2023/06/16 08:45:28;;;;;;;7.30;3.30;;;19.50;81.40;;;20.34;57.27;98231.34;5025544;28;20531;-84
2023/06/16 08:47:57;;;;;;;5.53;2.63;;;19.80;80.70;;;20.40;57.43;98236.50;5024461;28;20466;-82
2023/06/16 08:50:26;;;;;;;5.00;3.23;;;19.70;81.00;;;20.50;54.56;98222.53;5025674;28;20549;-82
2023/06/16 08:52:57;;;;;;;6.67;2.87;;;19.90;78.30;;;20.58;53.63;98224.78;5021377;28;20493;-82
2023/06/16 08:55:29;;;;;;;11.70;3.07;;;19.90;78.00;;;20.70;52.56;98229.94;5025392;28;21196;-82
2023/06/16 08:57:58;;;;;;;5.43;3.37;;;20.10;76.90;;;20.74;51.92;98231.06;5025781;28;20466;-82
2023/06/16 09:00:32;;;;;;;4.83;3.20;;;20.00;76.90;;;20.78;52.41;98222.34;5023733;28;20466;-81
2023/06/16 09:03:04;;;;;;;5.40;3.30;;;20.10;77.70;;;20.82;53.22;98220.81;5025120;28;20553;-82
2023/06/16 09:05:33;;;;;;;8.93;3.97;;;20.10;77.30;;;20.89;53.29;98224.09;5024207;28;20462;-82
2023/06/16 09:08:05;;;;;;;5.57;2.40;;;20.30;78.60;;;20.94;53.36;98221.47;5024642;28;20803;-82
2023/06/16 09:10:34;;;;;;;5.57;2.67;;;20.30;78.40;;;20.95;54.13;98216.97;5024407;28;20537;-83
2023/06/16 09:13:03;;;;;;;8.90;3.63;;;20.30;79.80;;;20.97;54.61;98231.59;5024796;28;20512;-82
2023/06/16 09:15:35;;;;;;;5.93;3.13;;;20.30;78.80;;;20.97;53.90;98218.31;5023289;28;20462;-82
2023/06/16 09:18:07;;;;;;;11.13;3.10;;;20.20;78.50;;;21.01;52.90;98223.94;5024298;28;20825;-82
2023/06/16 09:20:41;;;;;;;3.53;2.90;;;20.30;78.20;;;21.04;52.42;98224.25;5024698;28;20576;-82
2023/06/16 09:23:11;;;;;;;14.57;2.93;;;20.40;77.90;;;21.12;52.77;98225.69;5025390;28;20466;-82
2023/06/16 09:25:40;;;;;;;7.20;3.27;;;20.50;78.20;;;21.15;51.15;98222.53;5022710;28;20459;-81
2023/06/16 09:28:10;;;;;;;5.03;3.00;;;20.50;76.50;;;21.24;49.93;98225.56;5024963;28;20544;-82
2023/06/16 09:30:40;;;;;;;3.97;2.60;;;20.60;75.20;;;21.30;48.22;98225.34;5024752;28;20466;-82
2023/06/16 09:33:12;;;;;;;4.80;3.03;;;20.60;73.40;;;21.36;47.94;98221.69;5024117;28;20492;-82
2023/06/16 09:35:43;;;;;;;5.83;3.43;;;20.70;73.60;;;21.42;48.55;98227.84;5023645;28;20478;-82
2023/06/16 09:38:12;;;;;;;13.33;3.50;;;20.80;75.40;;;21.47;48.55;98227.91;5024111;28;20457;-82
2023/06/16 09:40:40;;;;;;;5.80;3.40;;;20.90;73.90;;;21.51;48.78;98224.50;5025054;28;20873;-81
2023/06/16 09:43:11;;;;;;;5.57;3.07;;;20.90;74.40;;;21.56;47.24;98213.88;5025204;28;20477;-82
2023/06/16 09:45:44;;;;;;;5.10;3.20;;;20.90;72.80;;;21.62;47.91;98214.72;5024533;28;20473;-82
2023/06/16 09:48:13;;;;;;;7.70;2.83;;;21.00;73.60;;;21.68;48.64;98212.91;5023607;28;20470;-82
2023/06/16 09:50:43;;;;;;;6.40;3.37;;;20.90;74.80;;;21.70;48.19;98216.09;5024085;28;20991;-82
2023/06/16 09:53:16;;;;;;;5.73;3.20;;;20.90;74.00;;;21.78;47.16;98216.47;5024094;28;20489;-82
2023/06/16 09:55:45;;;;;;;4.70;3.30;;;21.00;73.50;;;21.86;47.02;98207.19;5023837;28;20474;-82
2023/06/16 09:58:14;;;;;;;5.60;3.03;;;21.10;74.30;;;21.95;47.10;98213.69;5022658;28;20471;-82
2023/06/16 10:00:49;;;;;;;5.43;3.10;;;21.20;73.30;;;22.00;46.53;98211.88;5023552;28;20461;-82
2023/06/16 10:03:18;;;;;;;4.13;2.73;;;21.40;73.00;;;22.00;46.73;98209.19;5022950;28;20462;-82
2023/06/16 10:05:54;;;;;;;8.17;3.73;;;21.30;73.10;;;22.07;46.02;98214.31;5024136;28;21083;-82
2023/06/16 10:08:22;;;;;;;6.50;3.83;;;21.40;71.90;;;22.10;46.55;98213.78;5024143;28;20507;-82
2023/06/16 10:10:53;;;;;;;3.70;3.23;;;21.40;72.40;;;22.12;47.04;98210.84;5023810;28;20474;-83
2023/06/16 10:13:26;;;;;;;4.60;3.30;;;21.50;73.20;;;22.10;46.76;98213.78;5022467;28;20490;-83
2023/06/16 10:16:00;;;;;;;6.90;3.10;;;21.50;72.50;;;22.14;46.98;98208.75;5024086;28;20474;-82
2023/06/16 10:18:31;;;;;;;5.87;2.77;;;21.50;72.80;;;22.18;46.47;98207.19;5023863;28;20465;-82
2023/06/16 10:21:01;;;;;;;3.90;2.83;;;21.50;72.70;;;22.20;48.21;98213.84;5024566;28;20474;-82
2023/06/16 10:23:31;;;;;;;3.83;2.47;;;21.60;75.10;;;22.22;46.29;98214.38;5024218;28;20470;-82
2023/06/16 10:26:01;;;;;;;4.20;3.43;;;21.50;72.00;;;22.25;45.23;98211.19;5006061;28;20467;-83
2023/06/16 10:28:31;;;;;;;7.80;3.03;;;21.50;72.10;;;22.29;45.19;98201.63;5022216;28;20494;-82